createdAt,value
2019-05-06T00:00:06.355Z,102079.17
2019-05-06T00:02:35.537Z,102085.76
2019-05-06T00:05:05.643Z,102083.05
2019-05-06T00:07:34.810Z,102086.15
2019-05-06T00:10:05.782Z,102092.84
2019-05-06T00:12:35.062Z,102086.15
2019-05-06T00:15:06.006Z,102089.67
2019-05-06T00:17:35.170Z,102082.00
2019-05-06T00:20:05.802Z,102085.53
2019-05-06T00:22:34.985Z,102076.95
2019-05-06T00:25:07.225Z,102070.61
2019-05-06T00:27:47.016Z,102064.31
2019-05-06T00:30:16.340Z,102061.98
2019-05-06T00:32:45.490Z,102055.65
2019-05-06T00:35:14.671Z,102046.63
2019-05-06T00:37:44.264Z,102058.11
2019-05-06T00:40:15.099Z,102052.72
2019-05-06T00:42:54.092Z,102052.64
2019-05-06T00:45:24.396Z,102051.66
2019-05-06T00:47:53.687Z,102056.02
2019-05-06T00:50:24.252Z,102058.70
2019-05-06T00:52:54.688Z,102057.43
2019-05-06T00:55:24.228Z,102053.84
2019-05-06T00:57:54.494Z,102054.26
2019-05-06T01:00:25.774Z,102051.58
2019-05-06T01:02:55.037Z,102047.98
2019-05-06T01:05:24.557Z,102043.47
2019-05-06T01:07:54.931Z,102047.84
2019-05-06T01:10:24.424Z,102052.27
2019-05-06T01:13:01.370Z,102057.20
2019-05-06T01:15:31.044Z,102054.19
2019-05-06T01:18:00.211Z,102056.94
2019-05-06T01:20:29.394Z,102060.03
2019-05-06T01:22:58.550Z,102055.59
2019-05-06T01:25:28.800Z,102053.38
2019-05-06T01:27:57.954Z,102054.75
2019-05-06T01:30:27.279Z,102052.57
2019-05-06T01:32:56.595Z,102053.41
2019-05-06T01:35:26.889Z,102053.41
2019-05-06T01:38:00.575Z,102048.06
2019-05-06T01:43:20.655Z,102047.91
2019-05-06T01:45:49.828Z,102039.04
2019-05-06T01:48:20.638Z,102043.47
2019-05-06T01:50:49.815Z,102040.30
2019-05-06T01:53:18.973Z,102044.24
2019-05-06T01:55:48.144Z,102047.80
2019-05-06T01:58:17.430Z,102047.30
2019-05-06T02:00:46.639Z,102044.20
2019-05-06T02:03:15.910Z,102037.09
2019-05-06T02:05:45.099Z,102032.62
2019-05-06T02:08:14.267Z,102041.10
2019-05-06T02:10:43.651Z,102036.17
2019-05-06T02:13:18.111Z,102024.12
2019-05-06T02:15:50.270Z,102031.73
2019-05-06T02:18:20.041Z,102033.06
2019-05-06T02:20:51.075Z,102029.52
2019-05-06T02:23:30.761Z,102036.63
2019-05-06T02:25:59.941Z,102021.91
2019-05-06T02:28:29.086Z,102030.86
2019-05-06T02:30:59.873Z,102030.44
2019-05-06T02:33:35.547Z,102022.91
2019-05-06T02:36:08.750Z,102026.00
2019-05-06T02:38:46.541Z,102025.58
2019-05-06T02:41:08.821Z,102026.50
2019-05-06T02:43:38.253Z,102019.80
2019-05-06T02:46:07.393Z,102026.50
2019-05-06T02:48:43.232Z,102027.88
2019-05-06T02:51:13.626Z,102019.45
2019-05-06T02:53:43.107Z,102019.95
2019-05-06T02:56:13.351Z,102013.84
2019-05-06T02:58:43.753Z,102019.27
2019-05-06T03:01:19.167Z,102018.46
2019-05-06T03:03:53.612Z,102014.59
2019-05-06T03:06:27.687Z,102009.39
2019-05-06T03:09:02.974Z,102010.38
2019-05-06T03:11:36.056Z,102010.45
2019-05-06T03:14:08.494Z,102006.55
2019-05-06T03:16:43.702Z,102007.95
2019-05-06T03:19:16.081Z,102003.06
2019-05-06T03:21:49.988Z,102002.64
2019-05-06T03:24:23.709Z,101997.36
2019-05-06T03:26:59.758Z,101998.70
2019-05-06T03:29:29.005Z,102000.53
2019-05-06T03:31:58.272Z,101996.52
2019-05-06T03:34:57.672Z,101994.72
2019-05-06T03:37:16.255Z,101993.39
2019-05-06T03:39:46.118Z,101998.28
2019-05-06T03:42:19.436Z,101992.92
2019-05-06T03:44:53.286Z,101995.18
2019-05-06T03:47:34.462Z,101997.44
2019-05-06T03:50:04.787Z,101994.76
2019-05-06T03:52:39.409Z,101998.31
2019-05-06T03:55:13.980Z,101992.13
2019-05-06T03:57:46.075Z,101992.16
2019-05-06T04:00:16.507Z,101995.28
2019-05-06T04:02:54.125Z,101990.39
2019-05-06T04:05:24.053Z,101990.85
2019-05-06T04:07:53.353Z,101990.85
2019-05-06T04:10:26.568Z,101993.95
2019-05-06T04:12:55.988Z,101995.67
2019-05-06T04:15:27.032Z,101992.97
2019-05-06T04:17:58.297Z,101989.37
2019-05-06T04:20:33.954Z,101994.62
2019-05-06T04:23:06.774Z,101990.56
2019-05-06T04:25:59.923Z,101988.31
2019-05-06T04:28:43.605Z,101990.95
2019-05-06T04:31:14.778Z,101988.24
2019-05-06T04:34:05.349Z,101990.00
2019-05-06T04:36:17.969Z,101989.09
2019-05-06T04:38:48.505Z,101985.04
2019-05-06T04:41:23.101Z,101987.67
2019-05-06T04:43:53.559Z,101989.44
2019-05-06T04:46:28.617Z,101993.88
2019-05-06T04:49:10.192Z,101994.33
2019-05-06T04:51:43.329Z,101991.58
2019-05-06T04:54:15.334Z,101992.84
2019-05-06T04:56:44.718Z,101994.06
2019-05-06T04:59:19.487Z,102000.64
2019-05-06T05:01:53.744Z,102000.99
2019-05-06T05:04:31.693Z,101997.78
2019-05-06T05:06:57.859Z,101998.12
2019-05-06T05:09:27.901Z,101993.11
2019-05-06T05:11:59.019Z,101993.45
2019-05-06T05:14:32.667Z,101991.12
2019-05-06T05:17:07.198Z,101994.67
2019-05-06T05:19:43.941Z,102003.96
2019-05-06T05:22:18.533Z,102000.75
2019-05-06T05:24:51.951Z,102000.70
2019-05-06T05:27:22.142Z,102005.56
2019-05-06T05:29:52.281Z,102004.56
2019-05-06T05:32:26.731Z,102002.72
2019-05-06T05:34:57.137Z,102003.56
2019-05-06T05:37:28.242Z,101999.50
2019-05-06T05:40:03.079Z,102003.02
2019-05-06T05:42:36.997Z,102009.63
2019-05-06T05:45:07.398Z,102002.44
2019-05-06T05:47:42.529Z,102001.44
2019-05-06T05:50:22.910Z,102007.55
2019-05-06T05:52:57.472Z,102004.70
2019-05-06T05:55:28.612Z,102004.53
2019-05-06T05:58:05.295Z,101998.95
2019-05-06T06:00:37.101Z,101997.05
2019-05-06T06:03:12.666Z,102000.40
2019-05-06T06:05:46.501Z,101995.70
2019-05-06T06:08:21.824Z,101993.29
2019-05-06T06:10:56.484Z,101997.17
2019-05-06T06:13:32.001Z,101997.88
2019-05-06T06:16:07.481Z,101995.87
2019-05-06T06:18:44.489Z,101995.18
2019-05-06T06:21:34.494Z,102000.31
2019-05-06T06:24:14.147Z,101993.09
2019-05-06T06:26:46.740Z,101988.36
2019-05-06T06:29:18.436Z,101988.17
2019-05-06T06:32:10.581Z,101993.74
2019-05-06T06:34:44.547Z,101985.71
2019-05-06T06:37:28.735Z,101988.39
2019-05-06T06:40:07.543Z,101981.85
2019-05-06T06:42:40.182Z,101982.27
2019-05-06T06:45:09.669Z,101976.50
2019-05-06T06:47:43.889Z,101978.77
2019-05-06T06:50:13.749Z,101977.54
2019-05-06T06:52:45.125Z,101977.16
2019-05-06T06:55:18.538Z,101977.38
2019-05-06T06:57:51.958Z,101988.48
2019-05-06T07:00:29.149Z,101984.23
2019-05-06T07:03:03.464Z,101983.73
2019-05-06T07:05:42.326Z,101987.34
2019-05-06T07:08:15.857Z,101985.11
2019-05-06T07:10:45.286Z,101978.05
2019-05-06T07:13:23.216Z,101982.25
2019-05-06T07:15:54.968Z,101983.64
2019-05-06T07:18:24.650Z,101980.20
2019-05-06T07:20:57.736Z,101980.36
2019-05-06T07:23:32.862Z,101982.98
2019-05-06T07:26:03.167Z,101980.29
2019-05-06T07:28:43.718Z,101971.56
2019-05-06T07:31:21.139Z,101974.67
2019-05-06T07:33:48.310Z,101979.75
2019-05-06T07:36:20.211Z,101974.36
2019-05-06T07:38:52.988Z,101971.63
2019-05-06T07:41:32.509Z,101978.45
2019-05-06T07:44:05.635Z,101975.47
2019-05-06T07:46:42.765Z,101965.53
2019-05-06T07:49:12.706Z,101969.03
2019-05-06T07:51:45.486Z,101961.19
2019-05-06T07:54:17.377Z,101963.66
2019-05-06T07:56:52.444Z,101962.14
2019-05-06T07:59:23.660Z,101961.82
2019-05-06T08:01:56.634Z,101959.41
2019-05-06T08:04:28.286Z,101960.56
2019-05-06T08:06:59.882Z,101961.69
2019-05-06T08:09:29.186Z,101962.48
2019-05-06T08:12:02.791Z,101965.16
2019-05-06T08:14:43.862Z,101957.23
2019-05-06T08:17:17.962Z,101953.46
2019-05-06T08:19:50.212Z,101953.11
2019-05-06T08:22:22.711Z,101955.15
2019-05-06T08:24:53.211Z,101950.18
2019-05-06T08:27:27.459Z,101953.64
2019-05-06T08:29:57.010Z,101956.00
2019-05-06T08:32:26.388Z,101952.37
2019-05-06T08:34:56.253Z,101952.45
2019-05-06T08:37:36.895Z,101958.53
2019-05-06T08:40:11.954Z,101955.30
2019-05-06T08:42:42.532Z,101956.14
2019-05-06T08:45:16.231Z,101955.96
2019-05-06T08:47:45.435Z,101945.00
2019-05-06T08:50:34.715Z,101954.72
2019-05-06T08:53:15.457Z,101958.97
2019-05-06T08:55:48.462Z,101954.39
2019-05-06T08:58:22.482Z,101958.47
2019-05-06T09:01:09.573Z,101964.16
2019-05-06T09:03:42.246Z,101958.76
2019-05-06T09:06:26.500Z,101963.09
2019-05-06T09:08:46.101Z,101956.81
2019-05-06T09:11:19.362Z,101956.44
2019-05-06T09:13:51.992Z,101957.09
2019-05-06T09:16:22.979Z,101952.18
2019-05-06T09:18:53.544Z,101964.77
2019-05-06T09:21:23.256Z,101957.20
2019-05-06T09:23:59.312Z,101952.34
2019-05-06T09:26:39.029Z,101967.08
2019-05-06T09:29:12.819Z,101960.36
2019-05-06T09:31:46.651Z,101963.10
2019-05-06T09:34:32.593Z,101969.48
2019-05-06T09:37:18.454Z,101955.94
2019-05-06T09:39:48.329Z,101960.72
2019-05-06T09:42:19.162Z,101961.09
2019-05-06T09:44:50.624Z,101958.55
2019-05-06T09:47:26.503Z,101945.63
2019-05-06T09:49:58.502Z,101953.44
2019-05-06T09:52:29.407Z,101944.12
2019-05-06T09:55:03.516Z,101948.39
2019-05-06T09:57:36.149Z,101937.29
2019-05-06T10:00:08.084Z,101932.31
2019-05-06T10:02:39.651Z,101929.09
2019-05-06T10:05:11.975Z,101940.89
2019-05-06T10:07:41.273Z,101945.77
2019-05-06T10:10:10.571Z,101946.73
2019-05-06T10:12:42.024Z,101936.09
2019-05-06T10:15:12.729Z,101940.95
2019-05-06T10:17:43.317Z,101941.16
2019-05-06T10:20:15.318Z,101935.39
2019-05-06T10:22:45.470Z,101927.46
2019-05-06T10:25:16.833Z,101931.67
2019-05-06T10:27:52.506Z,101929.99
2019-05-06T10:30:25.084Z,101930.70
2019-05-06T10:32:56.103Z,101937.82
2019-05-06T10:35:29.495Z,101927.28
2019-05-06T10:38:15.238Z,101928.81
2019-05-06T10:41:03.664Z,101930.27
2019-05-06T10:43:43.097Z,101930.22
2019-05-06T10:46:13.167Z,101920.09
2019-05-06T10:48:42.684Z,101924.38
2019-05-06T10:51:17.293Z,101925.34
2019-05-06T10:53:51.254Z,101911.35
2019-05-06T10:56:32.191Z,101920.53
2019-05-06T10:59:08.591Z,101908.85
2019-05-06T11:01:43.378Z,101907.70
2019-05-06T11:04:15.342Z,101909.65
2019-05-06T11:06:45.562Z,101908.47
2019-05-06T11:09:14.835Z,101915.61
2019-05-06T11:11:44.539Z,101911.13
2019-05-06T11:14:15.353Z,101897.75
2019-05-06T11:16:46.411Z,101904.92
2019-05-06T11:19:17.810Z,101904.92
2019-05-06T11:21:53.171Z,101897.17
2019-05-06T11:24:26.679Z,101886.70
2019-05-06T11:26:58.704Z,101892.28
2019-05-06T11:29:33.913Z,101900.08
2019-05-06T11:32:09.477Z,101891.54
2019-05-06T11:34:42.906Z,101890.73
2019-05-06T11:37:43.825Z,101889.41
2019-05-06T11:40:01.654Z,101886.73
2019-05-06T11:42:35.286Z,101877.52
2019-05-06T11:45:03.420Z,101881.75
2019-05-06T11:47:35.238Z,101887.33
2019-05-06T11:50:08.446Z,101884.02
2019-05-06T11:52:37.987Z,101892.98
2019-05-06T11:55:08.881Z,101883.03
2019-05-06T11:57:42.064Z,101899.25
2019-05-06T12:00:15.151Z,101890.22
2019-05-06T12:02:48.577Z,101890.31
2019-05-06T12:05:18.463Z,101883.81
2019-05-06T12:08:01.798Z,101892.47
2019-05-06T12:10:23.042Z,101892.59
2019-05-06T12:12:55.654Z,101887.48
2019-05-06T12:15:27.247Z,101883.50
2019-05-06T12:18:04.020Z,101891.64
2019-05-06T12:20:35.841Z,101887.20
2019-05-06T12:23:05.697Z,101882.68
2019-05-06T12:25:38.307Z,101881.09
2019-05-06T12:28:09.101Z,101876.97
2019-05-06T12:30:42.600Z,101879.74
2019-05-06T12:33:13.251Z,101887.02
2019-05-06T12:35:45.644Z,101879.34
2019-05-06T12:38:29.498Z,101878.75
2019-05-06T12:40:52.983Z,101878.52
2019-05-06T12:43:29.769Z,101876.54
2019-05-06T12:46:07.258Z,101884.98
2019-05-06T12:48:47.300Z,101881.86
2019-05-06T12:51:22.722Z,101882.84
2019-05-06T12:53:53.127Z,101884.59
2019-05-06T12:56:27.873Z,101887.86
2019-05-06T12:58:59.437Z,101877.83
2019-05-06T13:01:33.958Z,101881.69
2019-05-06T13:04:05.354Z,101892.17
2019-05-06T13:06:45.840Z,101890.03
2019-05-06T13:09:16.060Z,101895.25
2019-05-06T13:11:47.553Z,101892.75
2019-05-06T13:14:22.384Z,101890.16
2019-05-06T13:16:53.693Z,101897.30
2019-05-06T13:19:25.892Z,101894.84
2019-05-06T13:21:57.731Z,101896.93
2019-05-06T13:24:29.537Z,101895.80
2019-05-06T13:27:02.626Z,101901.02
2019-05-06T13:29:36.821Z,101904.20
2019-05-06T13:32:12.763Z,101904.43
2019-05-06T13:34:44.954Z,101908.64
2019-05-06T13:37:15.157Z,101913.73
2019-05-06T13:39:48.643Z,101914.00
2019-05-06T13:42:22.609Z,101917.97
2019-05-06T13:44:53.665Z,101912.95
2019-05-06T13:47:41.674Z,101912.75
2019-05-06T13:50:15.406Z,101903.61
2019-05-06T13:52:48.258Z,101910.27
2019-05-06T13:55:21.914Z,101905.41
2019-05-06T13:57:53.221Z,101908.52
2019-05-06T14:00:26.438Z,101909.98
2019-05-06T14:02:57.666Z,101902.28
2019-05-06T14:05:26.818Z,101896.88
2019-05-06T14:08:02.555Z,101894.61
2019-05-06T14:10:33.917Z,101900.26
2019-05-06T14:13:03.276Z,101895.66
2019-05-06T14:15:35.005Z,101901.45
2019-05-06T14:18:13.730Z,101905.51
2019-05-06T14:20:44.863Z,101906.94
2019-05-06T14:23:16.675Z,101904.45
2019-05-06T14:25:58.784Z,101899.48
2019-05-06T14:28:33.138Z,101904.75
2019-05-06T14:31:08.571Z,101901.09
2019-05-06T14:33:42.799Z,101902.42
2019-05-06T14:36:13.790Z,101899.46
2019-05-06T14:38:46.036Z,101899.95
2019-05-06T14:41:18.833Z,101899.86
2019-05-06T14:43:52.893Z,101900.73
2019-05-06T14:46:24.475Z,101897.46
2019-05-06T14:48:55.917Z,101896.67
2019-05-06T14:51:25.468Z,101891.73
2019-05-06T14:53:54.745Z,101888.24
2019-05-06T14:56:34.974Z,101880.77
2019-05-06T14:59:07.130Z,101885.94
2019-05-06T15:01:39.854Z,101871.45
2019-05-06T15:04:12.565Z,101874.03
2019-05-06T15:06:42.691Z,101877.09
2019-05-06T15:09:15.014Z,101881.23
2019-05-06T15:11:46.943Z,101874.63
2019-05-06T15:14:16.384Z,101876.61
2019-05-06T15:16:53.413Z,101878.74
2019-05-06T15:19:25.077Z,101879.31
2019-05-06T15:21:57.327Z,101877.95
2019-05-06T15:24:26.677Z,101878.39
2019-05-06T15:26:58.794Z,101874.50
2019-05-06T15:29:28.052Z,101888.80
2019-05-06T15:32:03.112Z,101880.34
2019-05-06T15:34:35.923Z,101889.09
2019-05-06T15:37:26.117Z,101889.21
2019-05-06T15:39:58.104Z,101892.14
2019-05-06T15:42:28.856Z,101891.14
2019-05-06T15:44:59.217Z,101893.59
2019-05-06T15:47:32.111Z,101903.36
2019-05-06T15:50:01.283Z,101909.05
2019-05-06T15:52:32.465Z,101909.91
2019-05-06T15:55:03.246Z,101911.00
2019-05-06T15:57:32.903Z,101911.98
2019-05-06T16:00:02.750Z,101913.47
2019-05-06T16:02:33.904Z,101917.40
2019-05-06T16:05:11.614Z,101919.67
2019-05-06T16:07:37.202Z,101926.03
2019-05-06T16:10:07.574Z,101919.00
2019-05-06T16:12:36.784Z,101914.86
2019-05-06T16:15:12.840Z,101910.34
2019-05-06T16:17:42.615Z,101915.73
2019-05-06T16:20:12.981Z,101916.41
2019-05-06T16:22:44.616Z,101913.53
2019-05-06T16:25:16.537Z,101905.44
2019-05-06T16:27:51.243Z,101909.48
2019-05-06T16:30:24.084Z,101910.42
2019-05-06T16:32:52.711Z,101910.36
2019-05-06T16:35:22.886Z,101904.09
2019-05-06T16:37:52.278Z,101893.80
2019-05-06T16:40:24.603Z,101894.27
2019-05-06T16:42:56.745Z,101902.88
2019-05-06T16:45:26.744Z,101912.17
2019-05-06T16:47:56.151Z,101908.61
2019-05-06T16:50:29.584Z,101907.19
2019-05-06T16:53:02.764Z,101901.95
2019-05-06T16:55:55.050Z,101915.28
2019-05-06T16:58:25.334Z,101911.96
2019-05-06T17:00:54.577Z,101911.13
2019-05-06T17:03:25.536Z,101906.69
2019-05-06T17:06:15.659Z,101899.55
2019-05-06T17:08:44.862Z,101885.27
2019-05-06T17:11:26.864Z,101883.75
2019-05-06T17:13:46.224Z,101881.72
2019-05-06T17:16:15.859Z,101883.19
2019-05-06T17:18:45.044Z,101892.42
2019-05-06T17:21:15.920Z,101893.08
2019-05-06T17:23:47.635Z,101889.23
2019-05-06T17:26:16.875Z,101889.35
2019-05-06T17:28:57.045Z,101892.86
2019-05-06T17:31:44.721Z,101898.18
2019-05-06T17:34:32.252Z,101891.73
2019-05-06T17:37:06.341Z,101892.67
2019-05-06T17:39:42.410Z,101902.19
2019-05-06T17:42:14.091Z,101905.47
2019-05-06T17:44:43.410Z,101903.73
2019-05-06T17:47:32.944Z,101903.27
2019-05-06T17:50:05.279Z,101909.94
2019-05-06T17:52:34.472Z,101902.11
2019-05-06T17:55:04.223Z,101904.87
2019-05-06T17:57:33.245Z,101904.13
2019-05-06T18:00:04.308Z,101906.91
2019-05-06T18:02:33.427Z,101905.16
2019-05-06T18:05:03.579Z,101902.38
2019-05-06T18:07:33.104Z,101911.80
2019-05-06T18:10:03.216Z,101909.19
2019-05-06T18:12:36.076Z,101907.16
2019-05-06T18:15:06.493Z,101914.30
2019-05-06T18:17:35.855Z,101918.21
2019-05-06T18:20:06.610Z,101914.89
2019-05-06T18:22:35.875Z,101914.77
2019-05-06T18:25:05.790Z,101922.13
2019-05-06T18:27:37.152Z,101921.66
2019-05-06T18:30:17.736Z,101915.83
2019-05-06T18:32:38.485Z,101917.18
2019-05-06T18:35:08.516Z,101918.52
2019-05-06T18:37:37.743Z,101920.22
2019-05-06T18:40:06.996Z,101926.13
2019-05-06T18:42:36.541Z,101923.56
2019-05-06T18:45:08.458Z,101919.12
2019-05-06T18:47:37.849Z,101932.58
2019-05-06T18:50:09.959Z,101933.52
2019-05-06T18:52:40.519Z,101936.33
2019-05-06T18:55:12.245Z,101943.53
2019-05-06T18:57:42.335Z,101941.71
2019-05-06T19:00:11.971Z,101943.88
2019-05-06T19:02:42.336Z,101942.06
2019-05-06T19:05:19.332Z,101942.53
2019-05-06T19:07:48.544Z,101947.91
2019-05-06T19:10:33.228Z,101951.55
2019-05-06T19:13:02.715Z,101947.09
2019-05-06T19:15:33.363Z,101951.60
2019-05-06T19:18:02.567Z,101949.79
2019-05-06T19:20:33.873Z,101957.45
2019-05-06T19:23:03.293Z,101965.09
2019-05-06T19:25:34.690Z,101968.31
2019-05-06T19:28:05.269Z,101968.72
2019-05-06T19:30:36.431Z,101969.66
2019-05-06T19:33:07.172Z,101971.53
2019-05-06T19:35:37.117Z,101967.61
2019-05-06T19:38:06.412Z,101974.99
2019-05-06T19:40:35.592Z,101974.17
2019-05-06T19:43:04.891Z,101980.49
2019-05-06T19:45:34.651Z,101981.55
2019-05-06T19:48:03.468Z,101980.70
2019-05-06T19:50:33.174Z,101982.16
2019-05-06T19:53:01.745Z,101982.28
2019-05-06T19:55:30.917Z,101979.77
2019-05-06T19:58:02.199Z,101986.55
2019-05-06T20:00:32.569Z,101984.44
2019-05-06T20:03:02.709Z,101985.92
2019-05-06T20:05:39.587Z,101986.56
2019-05-06T20:08:23.163Z,101992.06
2019-05-06T20:11:13.099Z,101990.42
2019-05-06T20:13:43.140Z,101995.09
2019-05-06T20:16:12.421Z,101989.77
2019-05-06T20:18:42.575Z,101987.13
2019-05-06T20:21:12.107Z,101997.89
2019-05-06T20:23:42.528Z,101988.97
2019-05-06T20:26:12.484Z,101990.84
2019-05-06T20:28:42.969Z,101987.33
2019-05-06T20:31:12.439Z,101986.97
2019-05-06T20:33:42.160Z,101983.52
2019-05-06T20:36:12.575Z,101982.28
2019-05-06T20:38:42.393Z,101983.73
2019-05-06T20:41:12.620Z,101986.90
2019-05-06T20:43:42.416Z,101988.38
2019-05-06T20:46:12.412Z,101992.41
2019-05-06T20:48:42.148Z,101984.97
2019-05-06T20:51:12.324Z,101990.87
2019-05-06T20:53:43.145Z,101991.39
2019-05-06T20:56:12.524Z,101992.89
2019-05-06T20:58:42.312Z,101989.44
2019-05-06T21:01:11.493Z,101996.69
2019-05-06T21:03:42.358Z,101995.09
2019-05-06T21:06:13.152Z,101994.38
2019-05-06T21:08:42.891Z,101990.87
2019-05-06T21:11:25.658Z,101988.29
2019-05-06T21:13:43.320Z,101991.02
2019-05-06T21:16:13.019Z,101990.14
2019-05-06T21:18:42.309Z,101990.78
2019-05-06T21:21:13.461Z,101986.09
2019-05-06T21:23:42.828Z,101995.59
2019-05-06T21:26:13.642Z,101993.48
2019-05-06T21:28:46.292Z,101994.39
2019-05-06T21:31:13.904Z,101994.39
2019-05-06T21:33:43.067Z,101990.83
2019-05-06T21:36:12.481Z,101987.26
2019-05-06T21:38:42.728Z,101991.80
2019-05-06T21:41:12.880Z,101996.91
2019-05-06T21:43:47.038Z,102000.98
2019-05-06T21:46:13.945Z,101994.38
2019-05-06T21:48:43.112Z,101997.58
2019-05-06T21:51:12.834Z,101998.09
2019-05-06T21:53:42.020Z,102002.11
2019-05-06T21:56:13.047Z,102002.18
2019-05-06T21:58:42.864Z,102004.09
2019-05-06T22:01:12.415Z,102005.06
2019-05-06T22:03:43.384Z,102005.06
2019-05-06T22:06:13.072Z,102003.81
2019-05-06T22:08:46.257Z,102001.59
2019-05-06T22:11:19.894Z,102003.45
2019-05-06T22:14:00.835Z,102000.81
2019-05-06T22:16:29.825Z,101999.98
2019-05-06T22:19:06.778Z,101999.67
2019-05-06T22:21:37.604Z,101997.52
2019-05-06T22:24:06.775Z,101993.63
2019-05-06T22:26:35.937Z,101992.43
2019-05-06T22:29:05.451Z,101991.23
2019-05-06T22:31:34.622Z,101987.30
2019-05-06T22:34:03.781Z,101993.66
2019-05-06T22:36:32.967Z,101987.97
2019-05-06T22:39:05.760Z,101985.89
2019-05-06T22:41:34.922Z,101989.08
2019-05-06T22:44:13.047Z,101989.27
2019-05-06T22:46:34.998Z,101993.39
2019-05-06T22:49:04.162Z,101995.75
2019-05-06T22:51:33.336Z,101996.48
2019-05-06T22:54:02.906Z,101986.73
2019-05-06T22:56:32.562Z,101997.55
2019-05-06T22:59:03.255Z,101990.52
2019-05-06T23:01:37.336Z,101993.37
2019-05-06T23:04:07.497Z,101992.20
2019-05-06T23:06:36.719Z,101992.84
2019-05-06T23:09:08.242Z,101991.25
2019-05-06T23:11:38.159Z,101992.77
2019-05-06T23:14:06.586Z,102001.81
2019-05-06T23:16:35.778Z,102003.27
2019-05-06T23:19:05.105Z,101998.08
2019-05-06T23:21:34.260Z,102000.47
2019-05-06T23:24:03.445Z,101995.69
2019-05-06T23:26:32.710Z,101993.17
2019-05-06T23:29:02.546Z,101990.58
2019-05-06T23:31:33.286Z,101987.09
2019-05-06T23:34:04.961Z,101991.62
2019-05-06T23:36:57.003Z,101991.70
2019-05-06T23:40:04.786Z,101985.08
2019-05-06T23:43:12.516Z,101985.73
2019-05-06T23:46:17.594Z,101985.55
2019-05-06T23:49:23.499Z,101988.94
2019-05-06T23:52:31.896Z,101987.40
2019-05-06T23:55:37.261Z,101985.67
2019-05-06T23:58:05.411Z,101982.16
